Time;durP1;ratioP1;P1;durP2;ratioP2;P2;SDS_P1;SDS_P2;PMS_P1;PMS_P2;Temp;Humidity;BMP_temperature;BMP_pressure;BME280_temperature;BME280_humidity;BME280_pressure;Samples;Min_cycle;Max_cycle;Signal;HPM_P1;HPM_P2
2022/07/06 00:01:18;;;;;;;6.85;1.75;;;15.30;99.90;;;;;;5028369;28;20117;-65
2022/07/06 00:03:44;;;;;;;2.58;1.67;;;15.40;99.90;;;;;;5034940;28;20076;-65
2022/07/06 00:06:10;;;;;;;1.75;1.33;;;15.50;99.90;;;;;;5029255;28;20033;-65
2022/07/06 00:08:36;;;;;;;3.05;1.70;;;15.50;99.90;;;;;;5034710;28;20405;-66
2022/07/06 00:11:02;;;;;;;3.20;1.77;;;15.50;99.90;;;;;;5030161;28;20029;-65
2022/07/06 00:13:27;;;;;;;4.30;1.33;;;15.50;99.90;;;;;;5042374;28;20025;-66
2022/07/06 00:15:54;;;;;;;2.33;1.60;;;15.50;99.90;;;;;;5030306;28;20068;-65
2022/07/06 00:18:19;;;;;;;2.92;1.60;;;15.50;99.90;;;;;;5034489;28;20116;-64
2022/07/06 00:20:45;;;;;;;3.63;1.55;;;15.40;99.90;;;;;;5042390;28;20129;-65
2022/07/06 00:23:11;;;;;;;2.20;1.50;;;15.30;99.90;;;;;;5035107;28;20068;-65
2022/07/06 00:25:36;;;;;;;3.13;1.75;;;15.30;99.90;;;;;;5032720;28;20025;-65
2022/07/06 00:28:02;;;;;;;2.53;1.55;;;15.30;99.90;;;;;;5040276;28;20025;-65
2022/07/06 00:30:28;;;;;;;5.60;2.10;;;15.30;99.90;;;;;;5036145;28;20061;-64
2022/07/06 00:32:54;;;;;;;4.45;1.52;;;15.30;99.90;;;;;;5034462;28;20032;-64
2022/07/06 00:35:19;;;;;;;5.57;2.05;;;15.20;99.90;;;;;;5024083;28;20030;-65
2022/07/06 00:37:45;;;;;;;4.18;1.70;;;15.20;99.90;;;;;;5030256;28;20069;-65
2022/07/06 00:40:11;;;;;;;3.67;2.10;;;15.20;99.90;;;;;;5028890;28;20124;-64
2022/07/06 00:42:41;;;;;;;2.90;1.52;;;15.10;99.90;;;;;;5033358;28;20497;-64
2022/07/06 00:45:07;;;;;;;3.47;1.70;;;15.00;99.90;;;;;;5033604;28;20026;-65
2022/07/06 00:47:32;;;;;;;2.35;1.40;;;14.90;99.90;;;;;;5038256;28;20496;-65
2022/07/06 00:53:09;;;;;;;2.83;1.85;;;14.80;99.90;;;;;;5029973;28;20036;-64
2022/07/06 00:55:40;;;;;;;2.15;1.70;;;14.90;99.90;;;;;;5031682;28;20065;-65
2022/07/06 00:58:07;;;;;;;3.60;1.90;;;14.80;99.90;;;;;;5027256;28;20033;-65
2022/07/06 01:00:33;;;;;;;4.10;1.58;;;14.80;99.90;;;;;;5030223;28;20266;-66
2022/07/06 01:02:58;;;;;;;3.85;1.95;;;14.70;99.90;;;;;;5028215;28;20087;-63
2022/07/06 01:05:24;;;;;;;3.50;1.73;;;14.70;99.90;;;;;;5028906;28;20083;-64
2022/07/06 01:07:51;;;;;;;2.30;1.48;;;14.80;99.90;;;;;;5034292;28;20323;-64
2022/07/06 01:10:18;;;;;;;1.75;1.42;;;14.70;99.90;;;;;;5027820;28;20479;-65
2022/07/06 01:12:46;;;;;;;2.47;1.50;;;14.60;99.90;;;;;;5029531;28;20497;-65
2022/07/06 01:15:23;;;;;;;2.28;1.52;;;14.40;99.90;;;;;;5029790;28;20025;-66
2022/07/06 01:17:50;;;;;;;4.05;1.15;;;14.30;99.90;;;;;;5028387;28;20497;-66
2022/07/06 01:20:21;;;;;;;2.92;1.63;;;14.40;99.90;;;;;;5028173;28;20033;-65
2022/07/06 01:22:48;;;;;;;3.10;1.60;;;14.30;99.90;;;;;;5036791;28;20118;-66
2022/07/06 01:25:14;;;;;;;2.15;1.02;;;14.20;99.90;;;;;;5031989;28;20033;-65
2022/07/06 01:27:41;;;;;;;1.92;1.45;;;14.10;99.90;;;;;;5031643;28;20050;-66
2022/07/06 01:30:12;;;;;;;2.63;1.10;;;14.10;99.90;;;;;;5033239;28;20049;-65
2022/07/06 01:32:39;;;;;;;2.30;1.40;;;14.10;99.90;;;;;;5032449;28;20505;-66
2022/07/06 01:35:07;;;;;;;5.53;1.80;;;14.20;99.90;;;;;;5035293;28;20052;-66
2022/07/06 01:37:33;;;;;;;5.13;1.45;;;14.30;99.90;;;;;;5033485;28;20029;-66
2022/07/06 01:40:00;;;;;;;2.08;1.70;;;14.30;99.90;;;;;;5031749;28;20025;-65
2022/07/06 01:42:26;;;;;;;3.20;1.75;;;14.30;99.90;;;;;;5037910;28;20042;-66
2022/07/06 01:44:52;;;;;;;5.10;2.00;;;14.20;99.90;;;;;;5029476;28;20025;-65
2022/07/06 01:47:17;;;;;;;2.53;1.60;;;14.30;99.90;;;;;;5034622;28;20374;-65
2022/07/06 01:49:43;;;;;;;5.28;1.85;;;14.20;99.90;;;;;;5031967;28;20424;-65
2022/07/06 01:52:09;;;;;;;5.72;1.67;;;14.20;99.90;;;;;;5032867;28;20092;-65
2022/07/06 01:54:34;;;;;;;5.65;2.00;;;14.20;99.90;;;;;;5034437;28;20014;-65
2022/07/06 01:57:00;;;;;;;2.63;1.63;;;14.20;99.90;;;;;;5034855;28;20082;-65
2022/07/06 01:59:25;;;;;;;5.85;1.85;;;14.20;99.90;;;;;;5037559;28;20048;-65
2022/07/06 02:01:51;;;;;;;4.15;1.88;;;14.10;99.90;;;;;;5029120;28;20042;-65
2022/07/06 02:04:17;;;;;;;3.03;1.80;;;14.10;99.90;;;;;;5030142;28;20385;-64
2022/07/06 02:06:42;;;;;;;3.47;1.70;;;14.10;99.90;;;;;;5035899;28;20481;-66
2022/07/06 02:09:08;;;;;;;4.03;2.13;;;14.00;99.90;;;;;;5026486;28;20030;-67
2022/07/06 02:11:34;;;;;;;6.05;1.83;;;13.90;99.90;;;;;;5037764;28;20048;-65
2022/07/06 02:13:59;;;;;;;4.35;2.38;;;13.80;99.90;;;;;;5028501;28;20029;-64
2022/07/06 02:16:25;;;;;;;2.78;1.95;;;13.80;99.90;;;;;;5026883;28;20041;-64
2022/07/06 02:18:51;;;;;;;3.03;1.48;;;13.70;99.90;;;;;;5035169;28;20041;-63
2022/07/06 02:21:16;;;;;;;4.43;2.10;;;13.60;99.90;;;;;;5030766;28;20033;-66
2022/07/06 02:23:42;;;;;;;3.83;2.05;;;13.60;99.90;;;;;;5035550;28;20051;-64
2022/07/06 02:26:08;;;;;;;2.70;1.88;;;13.50;99.90;;;;;;5028681;28;20037;-58
2022/07/06 02:28:33;;;;;;;3.88;2.00;;;13.50;99.90;;;;;;5034364;28;20022;-65
2022/07/06 02:30:59;;;;;;;4.65;1.95;;;13.50;99.90;;;;;;5031593;28;20030;-64
2022/07/06 02:33:25;;;;;;;3.60;2.05;;;13.50;99.90;;;;;;5037171;28;20037;-65
2022/07/06 02:35:50;;;;;;;3.00;1.83;;;13.50;99.90;;;;;;5035219;28;20462;-65
2022/07/06 02:38:16;;;;;;;4.47;1.90;;;13.50;99.90;;;;;;5033776;28;20033;-64
2022/07/06 02:40:42;;;;;;;4.75;1.23;;;13.50;99.90;;;;;;5034054;28;20029;-64
2022/07/06 02:43:08;;;;;;;3.35;1.60;;;13.50;99.90;;;;;;5027440;28;20390;-65
2022/07/06 02:45:33;;;;;;;5.30;1.80;;;13.50;99.90;;;;;;5040471;28;20074;-64
2022/07/06 02:47:59;;;;;;;4.55;2.20;;;13.50;99.90;;;;;;5032391;28;20029;-67
2022/07/06 02:50:25;;;;;;;3.75;1.58;;;13.40;99.90;;;;;;5029107;28;20108;-66
2022/07/06 02:52:51;;;;;;;3.63;1.75;;;13.40;99.90;;;;;;5025022;28;20040;-65
2022/07/06 02:55:17;;;;;;;3.00;1.60;;;13.40;99.90;;;;;;5034752;28;20377;-63
2022/07/06 02:57:43;;;;;;;4.38;2.05;;;13.40;99.90;;;;;;5039390;28;20033;-65
2022/07/06 03:00:09;;;;;;;2.90;1.80;;;13.20;99.90;;;;;;5032057;28;20147;-63
2022/07/06 03:02:36;;;;;;;3.65;1.55;;;13.20;99.90;;;;;;5030695;28;20531;-64
2022/07/06 03:05:02;;;;;;;3.72;1.85;;;13.10;99.90;;;;;;5039681;28;20158;-63
2022/07/06 03:07:27;;;;;;;3.33;1.80;;;13.00;99.90;;;;;;5036408;28;20485;-63
2022/07/06 03:09:53;;;;;;;2.00;1.52;;;13.10;99.90;;;;;;5034220;28;20397;-63
2022/07/06 03:12:19;;;;;;;4.35;1.92;;;13.00;99.90;;;;;;5037034;28;20065;-64
2022/07/06 03:14:44;;;;;;;3.70;1.63;;;12.90;99.90;;;;;;5030847;28;20025;-64
2022/07/06 03:17:10;;;;;;;3.10;1.58;;;12.90;99.90;;;;;;5031153;28;20458;-64
2022/07/06 03:19:35;;;;;;;3.97;1.73;;;12.80;99.90;;;;;;5035250;28;20042;-65
2022/07/06 03:22:01;;;;;;;2.90;1.63;;;12.80;99.90;;;;;;5041258;28;20478;-64
2022/07/06 03:24:27;;;;;;;3.00;1.80;;;12.80;99.90;;;;;;5037668;28;20037;-65
2022/07/06 03:26:53;;;;;;;4.97;1.88;;;12.80;99.90;;;;;;5035623;28;20026;-64
2022/07/06 03:29:20;;;;;;;4.15;2.30;;;12.80;99.90;;;;;;5029331;28;20474;-65
2022/07/06 03:31:46;;;;;;;3.63;1.25;;;12.70;99.90;;;;;;5033581;28;20086;-65
2022/07/06 03:34:12;;;;;;;3.50;1.35;;;12.70;99.90;;;;;;5030240;28;20116;-65
2022/07/06 03:36:38;;;;;;;4.78;1.50;;;12.70;99.90;;;;;;5037058;28;20156;-64
2022/07/06 03:39:04;;;;;;;5.80;2.20;;;12.70;99.90;;;;;;5028803;28;20041;-65
2022/07/06 03:41:29;;;;;;;2.35;1.67;;;12.70;99.90;;;;;;5037175;28;20032;-65
2022/07/06 03:43:55;;;;;;;4.22;1.55;;;12.60;99.90;;;;;;5036892;28;20108;-65
2022/07/06 03:46:20;;;;;;;2.65;1.70;;;12.60;99.90;;;;;;5026682;28;20039;-66
2022/07/06 03:48:46;;;;;;;4.35;1.52;;;12.50;99.90;;;;;;5042978;28;20021;-65
2022/07/06 03:51:12;;;;;;;4.53;1.70;;;12.50;99.90;;;;;;5029948;28;20056;-66
2022/07/06 03:53:38;;;;;;;4.68;1.80;;;12.50;99.90;;;;;;5025081;28;20030;-65
2022/07/06 03:58:48;;;;;;;6.30;2.15;;;12.50;99.90;;;;;;5029265;28;20052;-65
2022/07/06 04:01:13;;;;;;;3.80;1.90;;;12.50;99.90;;;;;;5030690;28;20374;-65
2022/07/06 04:03:40;;;;;;;5.57;1.50;;;12.50;99.90;;;;;;5043669;28;20419;-66
2022/07/06 04:06:05;;;;;;;5.72;1.83;;;12.50;99.90;;;;;;5029001;28;20032;-65
2022/07/06 04:08:31;;;;;;;6.47;2.97;;;12.60;99.90;;;;;;5040266;28;20034;-65
2022/07/06 04:10:57;;;;;;;5.15;1.73;;;12.50;99.90;;;;;;5039960;28;20028;-64
2022/07/06 04:13:23;;;;;;;2.85;1.40;;;12.60;99.90;;;;;;5034054;28;20444;-64
2022/07/06 04:15:49;;;;;;;7.63;1.60;;;12.70;99.90;;;;;;5038470;28;20039;-64
2022/07/06 04:18:14;;;;;;;2.65;1.38;;;12.60;99.90;;;;;;5039659;28;20769;-65
2022/07/06 04:20:40;;;;;;;3.92;1.42;;;12.70;99.90;;;;;;5028078;28;20147;-64
2022/07/06 04:23:06;;;;;;;4.75;2.00;;;12.70;99.90;;;;;;5046609;28;20033;-65
2022/07/06 04:25:31;;;;;;;6.72;1.83;;;12.70;99.90;;;;;;5043295;28;20026;-65
2022/07/06 04:27:57;;;;;;;6.20;1.73;;;12.70;99.90;;;;;;5047120;28;20385;-66
2022/07/06 04:30:22;;;;;;;5.40;1.42;;;12.70;99.90;;;;;;5037243;28;20473;-65
2022/07/06 04:32:48;;;;;;;6.22;1.98;;;12.70;99.90;;;;;;5038754;28;20481;-66
2022/07/06 04:35:14;;;;;;;3.55;1.90;;;12.70;99.90;;;;;;5046234;28;20039;-65
2022/07/06 04:37:39;;;;;;;3.75;1.73;;;12.70;99.90;;;;;;5032382;28;20515;-65
2022/07/06 04:40:06;;;;;;;5.70;1.70;;;12.70;99.90;;;;;;5030523;28;20385;-65
2022/07/06 04:42:31;;;;;;;6.22;1.63;;;12.70;99.90;;;;;;5030677;28;20109;-65
2022/07/06 04:44:57;;;;;;;4.32;1.30;;;12.70;99.90;;;;;;5029113;28;20030;-65
2022/07/06 04:47:23;;;;;;;3.30;1.52;;;12.80;99.90;;;;;;5041594;28;20115;-65
2022/07/06 04:49:48;;;;;;;5.75;1.80;;;12.80;99.90;;;;;;5038119;28;20018;-66
2022/07/06 04:52:14;;;;;;;6.18;1.52;;;12.90;99.90;;;;;;5046007;28;20470;-65
2022/07/06 04:54:39;;;;;;;2.03;1.05;;;12.90;99.90;;;;;;5037984;28;20064;-65
2022/07/06 04:57:05;;;;;;;4.35;1.73;;;12.90;99.90;;;;;;5045301;28;20025;-66
2022/07/06 04:59:31;;;;;;;4.00;1.23;;;12.90;99.90;;;;;;5042083;28;20033;-66
2022/07/06 05:01:56;;;;;;;5.90;1.50;;;13.00;99.90;;;;;;5028133;28;20037;-65
2022/07/06 05:04:23;;;;;;;4.30;1.75;;;13.10;99.90;;;;;;5037439;28;20021;-65
2022/07/06 05:06:49;;;;;;;5.50;1.40;;;13.10;99.90;;;;;;5042282;28;20033;-66
2022/07/06 05:09:15;;;;;;;7.72;1.27;;;13.10;99.90;;;;;;5036936;28;20952;-66
2022/07/06 05:11:40;;;;;;;5.32;1.60;;;13.20;99.90;;;;;;5039238;28;20432;-66
2022/07/06 05:14:06;;;;;;;5.00;1.98;;;13.30;99.90;;;;;;5037877;28;20025;-66
2022/07/06 05:16:32;;;;;;;4.55;1.60;;;13.40;99.90;;;;;;5044560;28;20021;-68
2022/07/06 05:18:58;;;;;;;4.93;1.40;;;13.40;99.90;;;;;;5039655;28;20095;-67
2022/07/06 05:21:24;;;;;;;4.28;1.80;;;13.40;99.90;;;;;;5024639;28;20029;-67
2022/07/06 05:23:50;;;;;;;5.22;1.80;;;13.60;99.90;;;;;;5042002;28;20033;-66
2022/07/06 05:26:15;;;;;;;5.80;1.80;;;13.70;99.90;;;;;;5031932;28;20040;-66
2022/07/06 05:28:41;;;;;;;6.22;2.08;;;13.80;99.90;;;;;;5029994;28;20033;-66
2022/07/06 05:31:07;;;;;;;9.15;2.65;;;14.00;99.90;;;;;;5027007;28;20040;-66
2022/07/06 05:33:32;;;;;;;9.60;2.65;;;14.00;99.90;;;;;;5032304;28;20033;-65
2022/07/06 05:35:58;;;;;;;8.00;3.05;;;14.10;99.90;;;;;;5027149;28;20532;-66
2022/07/06 05:38:24;;;;;;;8.82;3.72;;;14.10;99.90;;;;;;5033918;28;20029;-66
2022/07/06 05:40:49;;;;;;;6.90;3.47;;;14.20;99.90;;;;;;5033998;28;20091;-66
2022/07/06 05:43:15;;;;;;;8.25;4.05;;;14.30;99.90;;;;;;5030455;28;20033;-65
2022/07/06 05:45:41;;;;;;;8.70;4.40;;;14.30;99.90;;;;;;5029971;28;20496;-66
2022/07/06 05:50:50;;;;;;;8.48;4.60;;;14.40;99.90;;;;;;5027914;28;20085;-66
2022/07/06 05:53:16;;;;;;;12.07;5.97;;;14.50;99.90;;;;;;5030192;28;20111;-66
2022/07/06 05:55:42;;;;;;;11.93;5.28;;;14.50;99.90;;;;;;5032253;28;20040;-66
2022/07/06 05:58:08;;;;;;;11.43;5.85;;;14.60;99.90;;;;;;5030789;28;20029;-66
2022/07/06 06:00:33;;;;;;;14.00;7.15;;;14.60;99.90;;;;;;5039498;28;20025;-66
2022/07/06 06:02:59;;;;;;;13.75;6.57;;;14.60;99.90;;;;;;5030946;28;20029;-67
2022/07/06 06:05:25;;;;;;;12.27;7.10;;;14.70;99.90;;;;;;5030751;28;20442;-67
2022/07/06 06:07:52;;;;;;;15.77;6.85;;;14.70;99.90;;;;;;5032262;28;20026;-67
2022/07/06 06:10:19;;;;;;;9.43;6.00;;;14.80;99.90;;;;;;5035343;28;20103;-66
2022/07/06 06:12:46;;;;;;;14.30;6.13;;;14.90;99.90;;;;;;5034636;28;20025;-66
2022/07/06 06:15:12;;;;;;;9.63;5.60;;;15.10;99.90;;;;;;5031686;28;20033;-66
2022/07/06 06:17:38;;;;;;;13.43;6.57;;;15.30;99.90;;;;;;5031185;28;20116;-66
2022/07/06 06:20:09;;;;;;;12.18;6.07;;;15.50;99.90;;;;;;5029160;28;20052;-66
2022/07/06 06:22:51;;;;;;;11.05;6.00;;;15.60;99.90;;;;;;5029071;28;20120;-66
2022/07/06 06:25:27;;;;;;;13.90;6.43;;;15.90;99.90;;;;;;5029435;28;20029;-66
2022/07/06 06:27:53;;;;;;;13.73;6.50;;;16.20;99.90;;;;;;5026643;28;20068;-68
2022/07/06 06:30:18;;;;;;;9.88;5.20;;;16.40;99.90;;;;;;5027743;28;20132;-66
2022/07/06 06:32:44;;;;;;;10.45;6.47;;;16.60;99.90;;;;;;5038570;28;20021;-65
2022/07/06 06:35:10;;;;;;;10.15;5.40;;;16.60;99.90;;;;;;5032738;28;20116;-65
2022/07/06 06:37:36;;;;;;;10.45;6.20;;;16.60;99.90;;;;;;5035391;28;20025;-66
2022/07/06 06:40:03;;;;;;;12.82;6.55;;;16.60;99.90;;;;;;5045933;28;20116;-66
2022/07/06 06:42:29;;;;;;;11.10;5.75;;;16.60;99.90;;;;;;5035869;28;20044;-64
2022/07/06 06:44:55;;;;;;;10.75;5.38;;;16.60;99.90;;;;;;5036209;28;20026;-65
2022/07/06 06:47:20;;;;;;;9.55;4.95;;;16.60;99.90;;;;;;5036576;28;20139;-65
2022/07/06 06:49:47;;;;;;;8.10;4.82;;;16.70;99.90;;;;;;5035765;28;20488;-65
2022/07/06 06:52:13;;;;;;;11.90;5.47;;;16.80;99.90;;;;;;5033748;28;20030;-66
2022/07/06 06:54:38;;;;;;;8.98;4.95;;;16.70;99.90;;;;;;5028763;28;20111;-66
2022/07/06 06:57:04;;;;;;;10.77;5.03;;;16.70;99.90;;;;;;5034864;28;20030;-66
2022/07/06 06:59:30;;;;;;;10.07;5.05;;;16.80;99.90;;;;;;5039128;28;20033;-65
2022/07/06 07:01:55;;;;;;;9.02;5.30;;;16.70;99.90;;;;;;5026717;28;20505;-66
2022/07/06 07:04:21;;;;;;;11.38;5.82;;;16.70;99.90;;;;;;5039502;28;20087;-66
2022/07/06 07:06:47;;;;;;;13.77;6.13;;;16.70;99.90;;;;;;5038138;28;20053;-66
2022/07/06 07:09:12;;;;;;;11.27;6.40;;;16.70;99.90;;;;;;5022346;28;20021;-65
2022/07/06 07:11:38;;;;;;;11.20;4.80;;;16.70;99.90;;;;;;5024465;28;20106;-66
2022/07/06 07:14:04;;;;;;;8.95;4.80;;;16.80;99.90;;;;;;5035298;28;20033;-66
2022/07/06 07:16:30;;;;;;;8.60;4.60;;;16.90;99.90;;;;;;5025987;28;20120;-66
2022/07/06 07:18:55;;;;;;;13.40;5.13;;;17.00;99.90;;;;;;5028981;28;20511;-65
2022/07/06 07:21:21;;;;;;;11.90;4.38;;;17.00;99.90;;;;;;5028728;28;20044;-70
2022/07/06 07:23:48;;;;;;;7.72;4.47;;;17.00;99.90;;;;;;5029715;28;20064;-66
2022/07/06 07:26:14;;;;;;;7.38;4.38;;;17.10;99.90;;;;;;5024674;28;20168;-65
2022/07/06 07:28:39;;;;;;;12.40;4.63;;;17.20;99.90;;;;;;5020192;28;20159;-65
2022/07/06 07:31:05;;;;;;;11.25;5.10;;;17.20;99.90;;;;;;5029185;28;20059;-63
2022/07/06 07:33:31;;;;;;;9.55;5.07;;;17.20;99.90;;;;;;5023136;28;20026;-63
2022/07/06 07:35:57;;;;;;;8.15;4.07;;;17.20;99.90;;;;;;5026805;28;20381;-63
2022/07/06 07:38:22;;;;;;;8.63;3.92;;;17.20;99.90;;;;;;5027402;28;20026;-62
2022/07/06 07:40:49;;;;;;;8.95;3.92;;;17.30;99.90;;;;;;5019282;28;20017;-62
2022/07/06 07:43:14;;;;;;;10.65;4.82;;;17.40;99.90;;;;;;5025661;28;20049;-65
2022/07/06 07:45:40;;;;;;;7.28;3.72;;;17.50;99.90;;;;;;5021926;28;20044;-64
2022/07/06 07:48:06;;;;;;;10.18;4.22;;;17.50;99.90;;;;;;5021991;28;20029;-64
2022/07/06 07:50:31;;;;;;;9.10;3.67;;;17.50;99.90;;;;;;5023774;28;20446;-64
2022/07/06 07:52:57;;;;;;;9.88;5.40;;;17.60;99.90;;;;;;5010468;28;20028;-68
2022/07/06 07:55:23;;;;;;;7.07;4.10;;;17.80;99.90;;;;;;5021303;28;20155;-65
2022/07/06 07:57:48;;;;;;;8.73;4.97;;;18.10;99.90;;;;;;5022350;28;20036;-65
2022/07/06 08:00:14;;;;;;;8.43;4.60;;;18.40;99.90;;;;;;5022786;28;20525;-65
2022/07/06 08:02:40;;;;;;;10.25;4.53;;;18.80;99.90;;;;;;5021215;28;20045;-65
2022/07/06 08:05:06;;;;;;;14.68;5.07;;;19.20;99.90;;;;;;5036142;28;20420;-65
2022/07/06 08:07:32;;;;;;;10.75;4.97;;;19.50;99.90;;;;;;5028791;28;20033;-64
2022/07/06 08:09:58;;;;;;;5.60;4.55;;;19.60;99.90;;;;;;5029757;28;20571;-65
2022/07/06 08:12:24;;;;;;;12.27;5.03;;;19.70;99.90;;;;;;5032315;28;20033;-64
2022/07/06 08:14:50;;;;;;;9.55;5.75;;;20.00;99.90;;;;;;5039122;28;20032;-65
2022/07/06 08:17:15;;;;;;;11.27;6.43;;;20.20;99.90;;;;;;5031892;28;20087;-65
2022/07/06 08:19:41;;;;;;;12.95;6.43;;;20.20;99.90;;;;;;5031115;28;20057;-66
2022/07/06 08:22:07;;;;;;;8.55;5.95;;;20.30;99.90;;;;;;5032162;28;20034;-65
2022/07/06 08:24:35;;;;;;;11.52;5.63;;;20.60;99.90;;;;;;5030541;28;20028;-65
2022/07/06 08:27:03;;;;;;;12.25;5.70;;;20.50;99.90;;;;;;5027080;28;20038;-66
2022/07/06 08:29:29;;;;;;;9.27;6.38;;;20.30;99.90;;;;;;5021886;28;20021;-65
2022/07/06 08:31:54;;;;;;;11.23;6.80;;;20.20;99.90;;;;;;5031076;28;20408;-66
2022/07/06 08:34:20;;;;;;;10.25;6.63;;;20.20;99.90;;;;;;5029686;28;20021;-66
2022/07/06 08:36:46;;;;;;;11.48;7.25;;;20.20;99.90;;;;;;5022692;28;20029;-64
2022/07/06 08:39:12;;;;;;;11.63;5.90;;;20.60;99.90;;;;;;5018019;28;20030;-65
2022/07/06 08:41:40;;;;;;;8.52;5.72;;;20.50;99.90;;;;;;5011987;28;20030;-65
2022/07/06 08:44:07;;;;;;;9.27;5.65;;;20.20;99.90;;;;;;5020901;28;20026;-65
2022/07/06 08:46:34;;;;;;;7.55;4.43;;;20.40;99.90;;;;;;5026638;28;20143;-65
2022/07/06 08:49:00;;;;;;;12.40;4.80;;;20.20;99.90;;;;;;5027798;28;20539;-65
2022/07/06 08:51:27;;;;;;;6.60;4.22;;;19.90;99.90;;;;;;5021985;28;20030;-66
2022/07/06 08:53:54;;;;;;;9.02;3.83;;;19.80;99.90;;;;;;5023453;28;20035;-66
2022/07/06 08:56:20;;;;;;;7.78;3.60;;;19.80;99.90;;;;;;5033070;28;20097;-66
2022/07/06 08:58:46;;;;;;;6.10;4.43;;;19.80;99.90;;;;;;5036018;28;20037;-66
2022/07/06 09:01:12;;;;;;;3.75;2.90;;;19.70;99.90;;;;;;5027942;28;20037;-66
2022/07/06 09:03:40;;;;;;;9.18;3.90;;;19.80;99.90;;;;;;5030021;28;20033;-66
2022/07/06 09:06:07;;;;;;;5.00;3.00;;;20.10;99.90;;;;;;5029122;28;20025;-66
2022/07/06 09:08:32;;;;;;;4.93;2.70;;;20.40;99.90;;;;;;5027389;28;20072;-66
2022/07/06 09:10:58;;;;;;;4.78;2.40;;;20.20;99.90;;;;;;5032186;28;20060;-65
2022/07/06 09:13:24;;;;;;;4.53;2.47;;;20.40;99.90;;;;;;5029002;28;20033;-65
2022/07/06 09:15:50;;;;;;;6.45;3.88;;;20.70;99.90;;;;;;5029741;28;20033;-66
2022/07/06 09:18:15;;;;;;;5.03;3.15;;;20.90;99.90;;;;;;5027433;28;20044;-67
2022/07/06 09:20:41;;;;;;;4.72;3.17;;;21.20;99.90;;;;;;5034372;28;20038;-67
2022/07/06 09:23:08;;;;;;;4.15;2.92;;;21.20;99.90;;;;;;5036918;28;20048;-65
2022/07/06 09:25:35;;;;;;;5.35;3.15;;;21.50;99.90;;;;;;5036196;28;20088;-66
2022/07/06 09:28:01;;;;;;;5.13;2.70;;;21.70;99.90;;;;;;5033693;28;20047;-66
2022/07/06 09:30:28;;;;;;;5.65;3.13;;;21.70;99.90;;;;;;5033845;28;20022;-66
2022/07/06 09:32:58;;;;;;;5.85;2.50;;;21.80;99.90;;;;;;5029526;28;20417;-67
2022/07/06 09:35:24;;;;;;;6.13;2.35;;;21.80;99.90;;;;;;5026772;28;20052;-66
2022/07/06 09:38:09;;;;;;;3.95;2.40;;;22.00;99.90;;;;;;5035270;28;20052;-66
2022/07/06 09:40:43;;;;;;;5.07;2.70;;;21.90;99.90;;;;;;5027089;28;20037;-66
2022/07/06 09:43:18;;;;;;;6.88;2.85;;;21.90;99.90;;;;;;5029565;28;20045;-66
2022/07/06 09:45:49;;;;;;;4.45;2.33;;;22.10;99.90;;;;;;5027081;28;20480;-66
2022/07/06 09:48:18;;;;;;;5.32;2.25;;;21.90;99.90;;;;;;5022963;28;20563;-66
2022/07/06 09:50:52;;;;;;;3.72;2.17;;;22.10;99.90;;;;;;5031127;28;20029;-66
2022/07/06 09:53:19;;;;;;;2.42;1.70;;;22.10;99.90;;;;;;5027606;28;20029;-66
2022/07/06 09:55:50;;;;;;;3.33;1.77;;;22.30;99.90;;;;;;5028411;28;20026;-66
2022/07/06 09:58:16;;;;;;;3.22;2.05;;;22.40;99.90;;;;;;5027258;28;20141;-66
2022/07/06 10:00:44;;;;;;;4.28;1.85;;;22.30;99.90;;;;;;5027479;28;20392;-65
2022/07/06 10:03:10;;;;;;;2.58;1.92;;;22.50;99.90;;;;;;5028974;28;20037;-66
2022/07/06 10:05:37;;;;;;;2.97;1.90;;;22.60;99.90;;;;;;5030329;28;20104;-66
2022/07/06 10:08:05;;;;;;;4.95;2.45;;;22.60;99.90;;;;;;5036921;28;20397;-65
2022/07/06 10:10:32;;;;;;;2.33;1.70;;;22.90;99.90;;;;;;5026496;28;20029;-66
2022/07/06 10:12:59;;;;;;;3.92;1.85;;;22.90;99.90;;;;;;5035325;28;20052;-66
2022/07/06 10:15:27;;;;;;;2.55;1.77;;;23.00;99.90;;;;;;5039337;28;20029;-66
2022/07/06 10:17:54;;;;;;;3.58;1.25;;;23.20;99.90;;;;;;5036128;28;20469;-67
2022/07/06 10:20:21;;;;;;;1.98;1.33;;;23.10;99.90;;;;;;5030256;28;20048;-66
2022/07/06 10:22:48;;;;;;;3.35;1.20;;;23.00;99.90;;;;;;5030770;28;20473;-67
2022/07/06 10:25:17;;;;;;;1.95;1.27;;;23.00;99.90;;;;;;5037400;28;20029;-65
2022/07/06 10:27:43;;;;;;;1.65;1.35;;;23.00;99.90;;;;;;5033776;28;20041;-66
2022/07/06 10:30:10;;;;;;;2.60;1.40;;;22.90;99.90;;;;;;5023929;28;20389;-65
2022/07/06 10:32:38;;;;;;;1.55;1.10;;;23.00;99.90;;;;;;5022471;28;20044;-65
2022/07/06 10:35:05;;;;;;;2.28;1.00;;;23.20;99.90;;;;;;5026030;28;20478;-66
2022/07/06 10:37:32;;;;;;;3.85;1.00;;;23.30;99.90;;;;;;5030550;28;20041;-66
2022/07/06 10:42:49;;;;;;;1.95;1.60;;;23.40;99.90;;;;;;5027854;28;20569;-67
2022/07/06 10:45:19;;;;;;;1.67;1.58;;;23.70;99.90;;;;;;5028454;28;20389;-67
2022/07/06 10:47:44;;;;;;;4.35;1.63;;;23.60;99.90;;;;;;5026261;28;20029;-65
2022/07/06 10:50:12;;;;;;;2.05;1.30;;;23.70;99.90;;;;;;5032097;28;20455;-66
2022/07/06 10:52:49;;;;;;;4.38;1.67;;;23.80;99.90;;;;;;5019848;28;20037;-66
2022/07/06 10:55:39;;;;;;;4.30;2.20;;;23.80;99.90;;;;;;5020138;28;20525;-66
2022/07/06 10:58:06;;;;;;;2.58;1.70;;;23.80;99.90;;;;;;5030854;28;20040;-66
2022/07/06 11:00:52;;;;;;;2.55;1.90;;;23.90;99.90;;;;;;5028229;28;20039;-66
2022/07/06 11:03:37;;;;;;;3.17;2.30;;;24.30;99.90;;;;;;5027325;28;20038;-65
2022/07/06 11:06:16;;;;;;;5.03;3.00;;;24.70;99.90;;;;;;5032233;28;20053;-65
2022/07/06 11:08:58;;;;;;;10.93;3.22;;;24.40;99.90;;;;;;5041869;28;20082;-63
2022/07/06 11:11:41;;;;;;;6.47;3.00;;;24.90;99.90;;;;;;5032243;28;20048;-64
2022/07/06 11:14:08;;;;;;;3.58;2.88;;;25.20;99.90;;;;;;5019230;28;20033;-66
2022/07/06 11:16:36;;;;;;;3.45;2.70;;;25.00;99.90;;;;;;5032868;28;20388;-66
2022/07/06 11:19:23;;;;;;;6.00;4.25;;;24.90;99.90;;;;;;5026208;28;20064;-66
2022/07/06 11:22:04;;;;;;;4.38;3.72;;;24.70;99.90;;;;;;5030716;28;20037;-66
2022/07/06 11:24:32;;;;;;;7.55;3.78;;;24.60;99.90;;;;;;5026597;28;20032;-67
2022/07/06 11:26:59;;;;;;;6.22;3.95;;;25.20;99.90;;;;;;5020450;28;20160;-66
2022/07/06 11:29:26;;;;;;;7.32;4.63;;;25.70;98.40;;;;;;5036061;28;20055;-67
2022/07/06 11:31:54;;;;;;;8.75;4.55;;;25.80;97.60;;;;;;5025482;28;20021;-67
2022/07/06 11:34:30;;;;;;;3.90;3.33;;;25.40;98.40;;;;;;5029883;28;20036;-66
2022/07/06 11:36:57;;;;;;;3.15;2.42;;;24.60;98.60;;;;;;5025286;28;20105;-67
2022/07/06 11:39:26;;;;;;;8.52;2.95;;;25.40;97.40;;;;;;5024921;28;20059;-67
2022/07/06 11:41:53;;;;;;;11.07;2.78;;;25.70;97.30;;;;;;5027458;28;20458;-65
2022/07/06 11:44:19;;;;;;;2.80;1.50;;;25.70;96.80;;;;;;5030638;28;20037;-65
2022/07/06 11:46:45;;;;;;;1.20;1.10;;;25.30;97.60;;;;;;5024912;28;20025;-64
2022/07/06 11:49:10;;;;;;;0.73;0.60;;;24.70;98.30;;;;;;5031418;28;20107;-67
2022/07/06 11:51:38;;;;;;;0.75;0.45;;;25.00;97.80;;;;;;5026742;28;20022;-67
2022/07/06 11:54:13;;;;;;;0.82;0.70;;;25.40;97.30;;;;;;5032268;28;20037;-67
2022/07/06 11:56:52;;;;;;;1.63;0.80;;;25.70;96.30;;;;;;5021355;28;20021;-67
2022/07/06 11:59:24;;;;;;;2.33;0.80;;;25.50;97.00;;;;;;5020374;28;20116;-66
2022/07/06 12:01:50;;;;;;;1.13;0.63;;;25.10;99.90;;;;;;5029287;28;20045;-66
2022/07/06 12:04:15;;;;;;;2.10;0.38;;;24.50;99.90;;;;;;5022455;28;20029;-66
2022/07/06 12:06:43;;;;;;;0.77;0.43;;;24.50;99.90;;;;;;5025379;28;20400;-66
2022/07/06 12:09:09;;;;;;;1.63;1.00;;;24.30;99.90;;;;;;5024396;28;20029;-66
2022/07/06 12:11:36;;;;;;;1.40;0.80;;;24.10;99.90;;;;;;5029958;28;20049;-66
2022/07/06 12:14:22;;;;;;;5.45;0.98;;;23.90;99.90;;;;;;5031998;28;20393;-66
2022/07/06 12:16:49;;;;;;;2.00;0.75;;;23.70;99.90;;;;;;5042416;28;20037;-66
2022/07/06 12:19:16;;;;;;;2.17;0.98;;;23.50;99.90;;;;;;5020598;28;20099;-66
2022/07/06 12:21:44;;;;;;;2.28;1.00;;;23.40;99.90;;;;;;5020649;28;20146;-66
2022/07/06 12:24:16;;;;;;;2.58;0.70;;;23.00;99.90;;;;;;5020279;28;20061;-66
2022/07/06 12:26:42;;;;;;;2.58;0.88;;;22.80;99.90;;;;;;5031419;28;20072;-66
2022/07/06 12:29:10;;;;;;;2.08;1.00;;;22.60;99.90;;;;;;5019814;28;20119;-65
2022/07/06 12:31:41;;;;;;;8.77;1.70;;;22.50;99.90;;;;;;5028757;28;20052;-66
2022/07/06 12:34:19;;;;;;;4.32;0.80;;;22.60;99.90;;;;;;5019954;28;20555;-65
2022/07/06 12:36:50;;;;;;;1.73;0.85;;;22.50;99.90;;;;;;5020869;28;20030;-65
2022/07/06 12:39:17;;;;;;;2.03;0.82;;;22.40;99.90;;;;;;5031997;28;20071;-65
2022/07/06 12:41:46;;;;;;;3.08;0.90;;;22.30;99.90;;;;;;5024173;28;20041;-64
2022/07/06 12:44:12;;;;;;;6.13;0.90;;;22.20;99.90;;;;;;5021261;28;20127;-65
2022/07/06 12:46:42;;;;;;;2.35;1.15;;;22.30;99.90;;;;;;5022794;28;20504;-65
2022/07/06 12:49:13;;;;;;;1.33;0.77;;;22.20;99.90;;;;;;5020962;28;20030;-64
2022/07/06 12:51:52;;;;;;;;;;;22.50;99.90;;;;;;5028393;28;20029;-65
2022/07/06 12:54:18;;;;;;;3.25;1.15;;;22.20;99.90;;;;;;5018408;28;20012;-65
2022/07/06 12:57:07;;;;;;;7.03;1.00;;;22.20;99.90;;;;;;5026406;28;20462;-64